Startpagina
METAR-TAF:

METAR-TAF

Vliegvelden :

Vliegbasis Deelen

Arnhem, Nederland

breedte: 52-04N, lengte: 005-53E, hoogte: 48 m

Actueel weer

Dit bericht is 23 minuten geleden gemaakt, om 08:25 UTC
Wind 6 kt uit het zuiden, variërend tussen het oostzuidoosten en het westzuidwesten
Temperatuur 10°C
Vochtigheid 87%
Druk 1022 hPa
Zicht 10 km of meer
Geheel bewolkt op 23000 ft

METAR: EHDL 180825Z AUTO 17006KT 110V240 9999 OVC230 10/08 Q1022 BLU

Tijdstip: 10:48 (08:48 UTC)


TAF: ontbreekt

Waarnemingen en weersverwachtingen van meer dan 4000 vliegvelden (METAR en TAF).

De beschikbare stations zijn de gele en rode punten op de kaart.

Ga met uw muis naar het station om de naam te zien.

Klik dan om waarnemingen en weersverwachtingen te zien.

kaart wijzigen: klik op de groene knoppen met een zwart kruis om in te zoomen, op de groene knop met een streepje om uit te zoomen of op de groene pijlen voor aangrenzende kaarten.


METAR-TAF: